Terminal Aerodrome Forecast
Issued by NWS Jacksonville, FL

Current Version | Previous Version | Text Only | Print | Product List | Glossary On
Versions: 1 2 3 4 5 6 7 8 9 10 11 12 13 14 15 16 17 18 19
000
FTUS42 KJAX 241738
TAFSSI
TAF
KSSI 241738Z 2418/2518 14010KT P6SM FEW030
     FM250400 18006KT P6SM FEW025 BKN100
     FM250900 19004KT 6SM BR SCT025 BKN060
     FM251500 20006KT P6SM FEW025 SCT060=

USA.gov is the U.S. government's official web portal to all federal, state and local government web resources and services.